sensor_id;sensor_type;location;lat;lon;timestamp;temperature;humidity
10964;DHT22;5534;48.784;9.190;2023-05-01T00:02:14;13.90;99.90
10964;DHT22;5534;48.784;9.190;2023-05-01T00:04:40;14.00;99.90
10964;DHT22;5534;48.784;9.190;2023-05-01T00:07:06;14.00;99.90
10964;DHT22;5534;48.784;9.190;2023-05-01T00:09:31;14.00;99.90
10964;DHT22;5534;48.784;9.190;2023-05-01T00:11:57;14.00;99.90
10964;DHT22;5534;48.784;9.190;2023-05-01T00:14:23;14.00;99.90
10964;DHT22;5534;48.784;9.190;2023-05-01T00:16:49;13.90;99.90
10964;DHT22;5534;48.784;9.190;2023-05-01T00:19:15;13.90;99.90
10964;DHT22;5534;48.784;9.190;2023-05-01T00:21:47;13.90;99.90
10964;DHT22;5534;48.784;9.190;2023-05-01T00:24:14;13.80;99.90
10964;DHT22;5534;48.784;9.190;2023-05-01T00:26:41;13.50;99.90
10964;DHT22;5534;48.784;9.190;2023-05-01T00:29:06;13.40;99.90
10964;DHT22;5534;48.784;9.190;2023-05-01T00:31:32;13.30;99.90
10964;DHT22;5534;48.784;9.190;2023-05-01T00:33:58;13.50;99.90
10964;DHT22;5534;48.784;9.190;2023-05-01T00:36:24;13.50;99.90
10964;DHT22;5534;48.784;9.190;2023-05-01T00:38:50;13.50;99.90
10964;DHT22;5534;48.784;9.190;2023-05-01T00:41:16;13.60;99.90
10964;DHT22;5534;48.784;9.190;2023-05-01T00:43:41;13.40;99.90
10964;DHT22;5534;48.784;9.190;2023-05-01T00:46:08;13.50;99.90
10964;DHT22;5534;48.784;9.190;2023-05-01T00:48:34;13.20;99.90
10964;DHT22;5534;48.784;9.190;2023-05-01T00:51:02;13.30;99.90
10964;DHT22;5534;48.784;9.190;2023-05-01T00:53:30;13.10;99.90
10964;DHT22;5534;48.784;9.190;2023-05-01T00:55:57;13.20;99.90
10964;DHT22;5534;48.784;9.190;2023-05-01T00:58:23;13.20;99.90
10964;DHT22;5534;48.784;9.190;2023-05-01T01:00:49;13.30;99.90
10964;DHT22;5534;48.784;9.190;2023-05-01T01:03:16;13.40;99.90
10964;DHT22;5534;48.784;9.190;2023-05-01T01:05:50;13.50;99.90
10964;DHT22;5534;48.784;9.190;2023-05-01T01:08:32;13.50;99.90
10964;DHT22;5534;48.784;9.190;2023-05-01T01:11:13;13.40;99.90
10964;DHT22;5534;48.784;9.190;2023-05-01T01:13:46;13.30;99.90
10964;DHT22;5534;48.784;9.190;2023-05-01T01:16:22;13.20;99.90
10964;DHT22;5534;48.784;9.190;2023-05-01T01:18:57;13.30;99.90
10964;DHT22;5534;48.784;9.190;2023-05-01T01:21:41;13.30;99.90
10964;DHT22;5534;48.784;9.190;2023-05-01T01:30:02;13.00;99.90
10964;DHT22;5534;48.784;9.190;2023-05-01T01:35:08;13.40;99.90
10964;DHT22;5534;48.784;9.190;2023-05-01T01:40:37;13.40;99.90
10964;DHT22;5534;48.784;9.190;2023-05-01T01:43:09;13.30;99.90
10964;DHT22;5534;48.784;9.190;2023-05-01T01:45:41;13.50;99.90
10964;DHT22;5534;48.784;9.190;2023-05-01T01:48:13;13.10;99.90
10964;DHT22;5534;48.784;9.190;2023-05-01T01:50:41;13.20;99.90
10964;DHT22;5534;48.784;9.190;2023-05-01T01:53:08;13.40;99.90
10964;DHT22;5534;48.784;9.190;2023-05-01T01:55:38;13.50;99.90
10964;DHT22;5534;48.784;9.190;2023-05-01T01:58:05;13.50;99.90
10964;DHT22;5534;48.784;9.190;2023-05-01T02:00:34;13.60;99.90
10964;DHT22;5534;48.784;9.190;2023-05-01T02:03:00;13.60;99.90
10964;DHT22;5534;48.784;9.190;2023-05-01T02:05:27;13.50;99.90
10964;DHT22;5534;48.784;9.190;2023-05-01T02:07:53;13.50;99.90
10964;DHT22;5534;48.784;9.190;2023-05-01T02:10:21;13.50;99.90
10964;DHT22;5534;48.784;9.190;2023-05-01T02:12:49;13.50;99.90
10964;DHT22;5534;48.784;9.190;2023-05-01T02:15:17;13.40;99.90
10964;DHT22;5534;48.784;9.190;2023-05-01T02:17:44;13.30;99.90
10964;DHT22;5534;48.784;9.190;2023-05-01T02:20:11;13.50;99.90
10964;DHT22;5534;48.784;9.190;2023-05-01T02:22:39;13.30;99.90
10964;DHT22;5534;48.784;9.190;2023-05-01T02:25:10;13.40;99.90
10964;DHT22;5534;48.784;9.190;2023-05-01T02:27:45;13.40;99.90
10964;DHT22;5534;48.784;9.190;2023-05-01T02:30:11;13.40;99.90
10964;DHT22;5534;48.784;9.190;2023-05-01T02:32:38;13.50;99.90
10964;DHT22;5534;48.784;9.190;2023-05-01T02:35:04;13.20;99.90
10964;DHT22;5534;48.784;9.190;2023-05-01T02:37:30;13.30;99.90
10964;DHT22;5534;48.784;9.190;2023-05-01T02:39:57;13.30;99.90
10964;DHT22;5534;48.784;9.190;2023-05-01T02:42:24;13.30;99.90
10964;DHT22;5534;48.784;9.190;2023-05-01T02:44:57;13.20;99.90
10964;DHT22;5534;48.784;9.190;2023-05-01T02:47:23;13.20;99.90
10964;DHT22;5534;48.784;9.190;2023-05-01T02:49:52;13.20;99.90
10964;DHT22;5534;48.784;9.190;2023-05-01T02:52:19;13.30;99.90
10964;DHT22;5534;48.784;9.190;2023-05-01T02:54:47;13.30;99.90
10964;DHT22;5534;48.784;9.190;2023-05-01T02:57:16;13.30;99.90
10964;DHT22;5534;48.784;9.190;2023-05-01T02:59:42;13.30;99.90
10964;DHT22;5534;48.784;9.190;2023-05-01T03:02:07;13.20;99.90
10964;DHT22;5534;48.784;9.190;2023-05-01T03:04:33;13.30;99.90
10964;DHT22;5534;48.784;9.190;2023-05-01T03:06:59;13.20;99.90
10964;DHT22;5534;48.784;9.190;2023-05-01T03:09:25;12.90;99.90
10964;DHT22;5534;48.784;9.190;2023-05-01T03:11:51;13.00;99.90
10964;DHT22;5534;48.784;9.190;2023-05-01T03:14:16;13.00;99.90
10964;DHT22;5534;48.784;9.190;2023-05-01T03:16:42;12.90;99.90
10964;DHT22;5534;48.784;9.190;2023-05-01T03:19:08;12.80;99.90
10964;DHT22;5534;48.784;9.190;2023-05-01T03:21:35;13.00;99.90
10964;DHT22;5534;48.784;9.190;2023-05-01T03:24:02;13.10;99.90
10964;DHT22;5534;48.784;9.190;2023-05-01T03:26:27;13.20;99.90
10964;DHT22;5534;48.784;9.190;2023-05-01T03:28:54;13.30;99.90
10964;DHT22;5534;48.784;9.190;2023-05-01T03:31:20;13.40;99.90
10964;DHT22;5534;48.784;9.190;2023-05-01T03:33:47;13.30;99.90
10964;DHT22;5534;48.784;9.190;2023-05-01T03:36:13;13.20;99.90
10964;DHT22;5534;48.784;9.190;2023-05-01T03:38:39;13.30;99.90
10964;DHT22;5534;48.784;9.190;2023-05-01T03:41:05;13.30;99.90
10964;DHT22;5534;48.784;9.190;2023-05-01T03:43:30;13.20;99.90
10964;DHT22;5534;48.784;9.190;2023-05-01T03:45:57;13.10;99.90
10964;DHT22;5534;48.784;9.190;2023-05-01T03:48:24;13.10;99.90
10964;DHT22;5534;48.784;9.190;2023-05-01T03:50:51;13.00;99.90
10964;DHT22;5534;48.784;9.190;2023-05-01T03:53:17;13.10;99.90
10964;DHT22;5534;48.784;9.190;2023-05-01T03:55:43;13.10;99.90
10964;DHT22;5534;48.784;9.190;2023-05-01T03:58:09;13.10;99.90
10964;DHT22;5534;48.784;9.190;2023-05-01T04:00:36;13.10;99.90
10964;DHT22;5534;48.784;9.190;2023-05-01T04:03:03;13.10;99.90
10964;DHT22;5534;48.784;9.190;2023-05-01T04:05:29;13.10;99.90
10964;DHT22;5534;48.784;9.190;2023-05-01T04:07:56;13.10;99.90
10964;DHT22;5534;48.784;9.190;2023-05-01T04:10:21;13.10;99.90
10964;DHT22;5534;48.784;9.190;2023-05-01T04:12:48;13.10;99.90
10964;DHT22;5534;48.784;9.190;2023-05-01T04:15:13;13.00;99.90
10964;DHT22;5534;48.784;9.190;2023-05-01T04:17:39;13.00;99.90
10964;DHT22;5534;48.784;9.190;2023-05-01T04:20:09;13.10;99.90
10964;DHT22;5534;48.784;9.190;2023-05-01T04:22:35;13.00;99.90
10964;DHT22;5534;48.784;9.190;2023-05-01T04:25:02;13.00;99.90
10964;DHT22;5534;48.784;9.190;2023-05-01T04:27:29;13.10;99.90
10964;DHT22;5534;48.784;9.190;2023-05-01T04:29:55;13.10;99.90
10964;DHT22;5534;48.784;9.190;2023-05-01T04:32:21;13.20;99.90
10964;DHT22;5534;48.784;9.190;2023-05-01T04:34:48;12.90;99.90
10964;DHT22;5534;48.784;9.190;2023-05-01T04:37:13;13.00;99.90
10964;DHT22;5534;48.784;9.190;2023-05-01T04:39:42;13.10;99.90
10964;DHT22;5534;48.784;9.190;2023-05-01T04:42:08;13.30;99.90
10964;DHT22;5534;48.784;9.190;2023-05-01T04:44:34;13.20;99.90
10964;DHT22;5534;48.784;9.190;2023-05-01T04:47:02;13.10;99.90
10964;DHT22;5534;48.784;9.190;2023-05-01T04:49:28;13.10;99.90
10964;DHT22;5534;48.784;9.190;2023-05-01T04:51:54;13.00;99.90
10964;DHT22;5534;48.784;9.190;2023-05-01T04:54:20;13.10;99.90
10964;DHT22;5534;48.784;9.190;2023-05-01T04:56:45;13.10;99.90
10964;DHT22;5534;48.784;9.190;2023-05-01T04:59:12;13.10;99.90
10964;DHT22;5534;48.784;9.190;2023-05-01T05:01:37;13.10;99.90
10964;DHT22;5534;48.784;9.190;2023-05-01T05:04:03;13.10;99.90
10964;DHT22;5534;48.784;9.190;2023-05-01T05:06:29;13.10;99.90
10964;DHT22;5534;48.784;9.190;2023-05-01T05:08:55;13.10;99.90
10964;DHT22;5534;48.784;9.190;2023-05-01T05:11:22;13.10;99.90
10964;DHT22;5534;48.784;9.190;2023-05-01T05:13:48;13.20;99.90
10964;DHT22;5534;48.784;9.190;2023-05-01T05:16:14;13.10;99.90
10964;DHT22;5534;48.784;9.190;2023-05-01T05:18:39;13.30;99.90
10964;DHT22;5534;48.784;9.190;2023-05-01T05:21:06;13.20;99.90
10964;DHT22;5534;48.784;9.190;2023-05-01T05:23:32;13.20;99.90
10964;DHT22;5534;48.784;9.190;2023-05-01T05:25:59;13.20;99.90
10964;DHT22;5534;48.784;9.190;2023-05-01T05:28:26;13.40;99.90
10964;DHT22;5534;48.784;9.190;2023-05-01T05:30:53;13.20;99.90
10964;DHT22;5534;48.784;9.190;2023-05-01T05:33:19;13.20;99.90
10964;DHT22;5534;48.784;9.190;2023-05-01T05:35:45;13.30;99.90
10964;DHT22;5534;48.784;9.190;2023-05-01T05:38:11;13.30;99.90
10964;DHT22;5534;48.784;9.190;2023-05-01T05:40:38;13.30;99.90
10964;DHT22;5534;48.784;9.190;2023-05-01T05:43:03;13.30;99.90
10964;DHT22;5534;48.784;9.190;2023-05-01T05:45:33;13.20;99.90
10964;DHT22;5534;48.784;9.190;2023-05-01T05:47:59;13.20;99.90
10964;DHT22;5534;48.784;9.190;2023-05-01T05:50:24;13.30;99.90
10964;DHT22;5534;48.784;9.190;2023-05-01T05:52:50;13.30;99.90
10964;DHT22;5534;48.784;9.190;2023-05-01T05:55:16;13.40;99.90
10964;DHT22;5534;48.784;9.190;2023-05-01T05:57:42;13.30;99.90
10964;DHT22;5534;48.784;9.190;2023-05-01T06:00:09;13.40;99.90
10964;DHT22;5534;48.784;9.190;2023-05-01T06:02:35;13.40;99.90
10964;DHT22;5534;48.784;9.190;2023-05-01T06:05:02;13.30;99.90
10964;DHT22;5534;48.784;9.190;2023-05-01T06:07:27;13.40;99.90
10964;DHT22;5534;48.784;9.190;2023-05-01T06:09:54;13.40;99.90
10964;DHT22;5534;48.784;9.190;2023-05-01T06:12:20;13.30;99.90
10964;DHT22;5534;48.784;9.190;2023-05-01T06:14:46;13.40;99.90
10964;DHT22;5534;48.784;9.190;2023-05-01T06:17:12;13.30;99.90
10964;DHT22;5534;48.784;9.190;2023-05-01T06:19:38;13.40;99.90
10964;DHT22;5534;48.784;9.190;2023-05-01T06:22:04;13.40;99.90
10964;DHT22;5534;48.784;9.190;2023-05-01T06:24:31;13.50;99.90
10964;DHT22;5534;48.784;9.190;2023-05-01T06:26:57;13.40;99.90
10964;DHT22;5534;48.784;9.190;2023-05-01T06:29:23;13.50;99.90
10964;DHT22;5534;48.784;9.190;2023-05-01T06:31:48;13.30;99.90
10964;DHT22;5534;48.784;9.190;2023-05-01T06:34:14;13.40;99.90
10964;DHT22;5534;48.784;9.190;2023-05-01T06:36:41;13.40;99.90
10964;DHT22;5534;48.784;9.190;2023-05-01T06:39:07;13.40;99.90
10964;DHT22;5534;48.784;9.190;2023-05-01T06:41:33;13.50;99.90
10964;DHT22;5534;48.784;9.190;2023-05-01T06:44:00;13.50;99.90
10964;DHT22;5534;48.784;9.190;2023-05-01T06:46:26;13.40;99.90
10964;DHT22;5534;48.784;9.190;2023-05-01T06:48:52;13.60;99.90
10964;DHT22;5534;48.784;9.190;2023-05-01T06:51:18;13.50;99.90
10964;DHT22;5534;48.784;9.190;2023-05-01T06:53:44;13.60;99.90
10964;DHT22;5534;48.784;9.190;2023-05-01T06:56:09;13.60;99.90
10964;DHT22;5534;48.784;9.190;2023-05-01T06:58:35;13.50;99.90
10964;DHT22;5534;48.784;9.190;2023-05-01T07:01:04;13.60;99.90
10964;DHT22;5534;48.784;9.190;2023-05-01T07:03:29;13.50;99.90
10964;DHT22;5534;48.784;9.190;2023-05-01T07:05:55;13.50;99.90
10964;DHT22;5534;48.784;9.190;2023-05-01T07:08:21;13.60;99.90
10964;DHT22;5534;48.784;9.190;2023-05-01T07:10:48;13.60;99.90
10964;DHT22;5534;48.784;9.190;2023-05-01T07:13:15;13.60;99.90
10964;DHT22;5534;48.784;9.190;2023-05-01T07:15:41;13.60;99.90
10964;DHT22;5534;48.784;9.190;2023-05-01T07:18:07;13.70;99.90
10964;DHT22;5534;48.784;9.190;2023-05-01T07:20:33;13.60;99.90
10964;DHT22;5534;48.784;9.190;2023-05-01T07:23:01;13.60;99.90
10964;DHT22;5534;48.784;9.190;2023-05-01T07:25:28;13.60;99.90
10964;DHT22;5534;48.784;9.190;2023-05-01T07:27:54;13.50;99.90
10964;DHT22;5534;48.784;9.190;2023-05-01T07:30:20;13.50;99.90
10964;DHT22;5534;48.784;9.190;2023-05-01T07:32:45;13.70;99.90
10964;DHT22;5534;48.784;9.190;2023-05-01T07:35:11;13.80;99.90
10964;DHT22;5534;48.784;9.190;2023-05-01T07:37:38;13.60;99.90
10964;DHT22;5534;48.784;9.190;2023-05-01T07:40:04;13.50;99.90
10964;DHT22;5534;48.784;9.190;2023-05-01T07:42:29;13.80;99.90
10964;DHT22;5534;48.784;9.190;2023-05-01T07:44:55;13.80;99.90
10964;DHT22;5534;48.784;9.190;2023-05-01T07:47:21;13.80;99.90
10964;DHT22;5534;48.784;9.190;2023-05-01T07:49:47;13.90;99.90
10964;DHT22;5534;48.784;9.190;2023-05-01T07:52:14;13.70;99.90
10964;DHT22;5534;48.784;9.190;2023-05-01T07:54:40;14.10;99.90
10964;DHT22;5534;48.784;9.190;2023-05-01T07:57:06;14.20;99.90
10964;DHT22;5534;48.784;9.190;2023-05-01T07:59:32;14.40;99.90
10964;DHT22;5534;48.784;9.190;2023-05-01T08:01:58;14.10;99.90
10964;DHT22;5534;48.784;9.190;2023-05-01T08:04:26;14.10;99.90
10964;DHT22;5534;48.784;9.190;2023-05-01T08:06:52;14.30;99.90
10964;DHT22;5534;48.784;9.190;2023-05-01T08:09:19;14.40;99.90
10964;DHT22;5534;48.784;9.190;2023-05-01T08:11:44;14.30;99.90
10964;DHT22;5534;48.784;9.190;2023-05-01T08:14:12;14.50;99.90
10964;DHT22;5534;48.784;9.190;2023-05-01T08:16:40;14.40;99.90
10964;DHT22;5534;48.784;9.190;2023-05-01T08:19:06;14.40;99.90
10964;DHT22;5534;48.784;9.190;2023-05-01T08:21:34;14.40;99.90
10964;DHT22;5534;48.784;9.190;2023-05-01T08:24:00;14.60;99.90
10964;DHT22;5534;48.784;9.190;2023-05-01T08:26:25;14.50;99.90
10964;DHT22;5534;48.784;9.190;2023-05-01T08:28:51;14.50;99.90
10964;DHT22;5534;48.784;9.190;2023-05-01T08:31:17;14.60;99.90
10964;DHT22;5534;48.784;9.190;2023-05-01T08:33:44;14.60;99.90
10964;DHT22;5534;48.784;9.190;2023-05-01T08:36:10;14.60;99.90
10964;DHT22;5534;48.784;9.190;2023-05-01T08:38:37;14.80;99.90
10964;DHT22;5534;48.784;9.190;2023-05-01T08:41:03;14.80;99.90
10964;DHT22;5534;48.784;9.190;2023-05-01T08:43:32;14.90;99.90
10964;DHT22;5534;48.784;9.190;2023-05-01T08:45:58;14.70;99.90
10964;DHT22;5534;48.784;9.190;2023-05-01T08:48:28;14.80;99.90
10964;DHT22;5534;48.784;9.190;2023-05-01T08:50:58;15.10;99.90
10964;DHT22;5534;48.784;9.190;2023-05-01T08:53:25;15.30;99.90
10964;DHT22;5534;48.784;9.190;2023-05-01T08:55:54;15.50;99.90
10964;DHT22;5534;48.784;9.190;2023-05-01T08:58:23;15.50;99.90
10964;DHT22;5534;48.784;9.190;2023-05-01T09:00:50;15.60;99.90
10964;DHT22;5534;48.784;9.190;2023-05-01T09:03:18;15.80;99.90
10964;DHT22;5534;48.784;9.190;2023-05-01T09:05:44;15.90;99.90
10964;DHT22;5534;48.784;9.190;2023-05-01T09:08:11;16.00;99.90
10964;DHT22;5534;48.784;9.190;2023-05-01T09:10:43;16.20;99.90
10964;DHT22;5534;48.784;9.190;2023-05-01T09:13:10;16.10;99.90
10964;DHT22;5534;48.784;9.190;2023-05-01T09:15:37;16.20;99.90
10964;DHT22;5534;48.784;9.190;2023-05-01T09:18:03;16.30;99.90
10964;DHT22;5534;48.784;9.190;2023-05-01T09:20:30;16.30;99.90
10964;DHT22;5534;48.784;9.190;2023-05-01T09:22:57;16.40;99.90
10964;DHT22;5534;48.784;9.190;2023-05-01T09:25:23;16.40;99.90
10964;DHT22;5534;48.784;9.190;2023-05-01T09:27:50;16.30;99.90
10964;DHT22;5534;48.784;9.190;2023-05-01T09:30:33;16.30;99.90
10964;DHT22;5534;48.784;9.190;2023-05-01T09:33:13;16.30;99.90
10964;DHT22;5534;48.784;9.190;2023-05-01T09:35:53;16.20;99.90
10964;DHT22;5534;48.784;9.190;2023-05-01T09:38:24;16.30;99.90
10964;DHT22;5534;48.784;9.190;2023-05-01T09:40:53;16.40;99.90
10964;DHT22;5534;48.784;9.190;2023-05-01T09:43:28;16.20;99.90
10964;DHT22;5534;48.784;9.190;2023-05-01T09:46:06;16.60;99.90
10964;DHT22;5534;48.784;9.190;2023-05-01T09:48:37;16.70;99.90
10964;DHT22;5534;48.784;9.190;2023-05-01T09:53:46;17.00;99.90
10964;DHT22;5534;48.784;9.190;2023-05-01T09:56:12;17.00;99.90
10964;DHT22;5534;48.784;9.190;2023-05-01T09:58:39;16.80;99.90
10964;DHT22;5534;48.784;9.190;2023-05-01T10:01:05;17.00;99.90
10964;DHT22;5534;48.784;9.190;2023-05-01T10:03:33;16.80;99.90
10964;DHT22;5534;48.784;9.190;2023-05-01T10:05:59;16.80;99.90
10964;DHT22;5534;48.784;9.190;2023-05-01T10:08:47;16.80;99.90
10964;DHT22;5534;48.784;9.190;2023-05-01T10:11:13;16.80;99.90
10964;DHT22;5534;48.784;9.190;2023-05-01T10:13:39;16.70;99.90
10964;DHT22;5534;48.784;9.190;2023-05-01T10:16:05;16.70;99.90
10964;DHT22;5534;48.784;9.190;2023-05-01T10:18:34;16.60;99.90
10964;DHT22;5534;48.784;9.190;2023-05-01T10:21:00;16.50;99.90
10964;DHT22;5534;48.784;9.190;2023-05-01T10:23:26;16.60;99.90
10964;DHT22;5534;48.784;9.190;2023-05-01T10:25:52;16.40;99.90
10964;DHT22;5534;48.784;9.190;2023-05-01T10:28:19;16.60;99.90
10964;DHT22;5534;48.784;9.190;2023-05-01T10:30:45;16.60;99.90
10964;DHT22;5534;48.784;9.190;2023-05-01T10:33:13;16.70;99.90
10964;DHT22;5534;48.784;9.190;2023-05-01T10:35:41;16.80;99.90
10964;DHT22;5534;48.784;9.190;2023-05-01T10:38:12;16.90;99.90
10964;DHT22;5534;48.784;9.190;2023-05-01T10:45:48;16.70;99.90
10964;DHT22;5534;48.784;9.190;2023-05-01T10:51:12;17.00;99.90
10964;DHT22;5534;48.784;9.190;2023-05-01T10:53:40;17.00;99.90
10964;DHT22;5534;48.784;9.190;2023-05-01T10:58:56;17.10;99.90
10964;DHT22;5534;48.784;9.190;2023-05-01T11:01:34;17.20;99.90
10964;DHT22;5534;48.784;9.190;2023-05-01T11:04:03;17.20;99.90
10964;DHT22;5534;48.784;9.190;2023-05-01T11:06:30;17.20;99.90
10964;DHT22;5534;48.784;9.190;2023-05-01T11:08:56;17.20;99.90
10964;DHT22;5534;48.784;9.190;2023-05-01T11:19:09;17.20;99.90
10964;DHT22;5534;48.784;9.190;2023-05-01T11:21:39;17.00;99.90
10964;DHT22;5534;48.784;9.190;2023-05-01T11:24:06;17.10;99.90
10964;DHT22;5534;48.784;9.190;2023-05-01T11:26:40;17.10;99.90
10964;DHT22;5534;48.784;9.190;2023-05-01T11:29:08;17.20;99.90
10964;DHT22;5534;48.784;9.190;2023-05-01T11:31:35;17.30;99.90
10964;DHT22;5534;48.784;9.190;2023-05-01T11:34:02;17.40;99.90
10964;DHT22;5534;48.784;9.190;2023-05-01T11:36:29;17.30;99.90
10964;DHT22;5534;48.784;9.190;2023-05-01T11:38:57;17.10;99.90
10964;DHT22;5534;48.784;9.190;2023-05-01T11:41:27;17.20;99.90
10964;DHT22;5534;48.784;9.190;2023-05-01T11:43:54;17.30;99.90
10964;DHT22;5534;48.784;9.190;2023-05-01T11:46:29;17.40;99.90
10964;DHT22;5534;48.784;9.190;2023-05-01T11:49:04;17.40;99.90
10964;DHT22;5534;48.784;9.190;2023-05-01T11:51:30;17.40;99.90
10964;DHT22;5534;48.784;9.190;2023-05-01T11:54:10;17.30;99.90
10964;DHT22;5534;48.784;9.190;2023-05-01T11:56:38;17.40;99.90
10964;DHT22;5534;48.784;9.190;2023-05-01T11:59:15;17.40;99.90
10964;DHT22;5534;48.784;9.190;2023-05-01T12:01:43;17.50;99.90
10964;DHT22;5534;48.784;9.190;2023-05-01T12:04:10;17.60;99.90
10964;DHT22;5534;48.784;9.190;2023-05-01T12:06:40;17.50;99.90
10964;DHT22;5534;48.784;9.190;2023-05-01T12:09:11;17.50;99.90
10964;DHT22;5534;48.784;9.190;2023-05-01T12:11:41;17.60;99.90
10964;DHT22;5534;48.784;9.190;2023-05-01T12:14:07;17.60;99.90
10964;DHT22;5534;48.784;9.190;2023-05-01T12:16:34;17.50;99.90
10964;DHT22;5534;48.784;9.190;2023-05-01T12:19:02;17.60;99.90
10964;DHT22;5534;48.784;9.190;2023-05-01T12:21:28;17.80;99.90
10964;DHT22;5534;48.784;9.190;2023-05-01T12:23:54;17.70;99.90
10964;DHT22;5534;48.784;9.190;2023-05-01T12:26:22;17.60;99.90
10964;DHT22;5534;48.784;9.190;2023-05-01T12:28:59;17.50;99.90
10964;DHT22;5534;48.784;9.190;2023-05-01T12:31:26;17.50;99.90
10964;DHT22;5534;48.784;9.190;2023-05-01T12:33:53;17.60;99.90
10964;DHT22;5534;48.784;9.190;2023-05-01T12:36:21;17.60;99.90
10964;DHT22;5534;48.784;9.190;2023-05-01T12:39:10;17.60;99.90
10964;DHT22;5534;48.784;9.190;2023-05-01T12:41:45;17.60;99.90
10964;DHT22;5534;48.784;9.190;2023-05-01T12:46:58;18.00;99.90
10964;DHT22;5534;48.784;9.190;2023-05-01T12:49:25;18.00;99.90
10964;DHT22;5534;48.784;9.190;2023-05-01T12:51:53;18.00;99.90
10964;DHT22;5534;48.784;9.190;2023-05-01T12:54:34;18.20;99.90
10964;DHT22;5534;48.784;9.190;2023-05-01T12:57:11;18.10;99.90
10964;DHT22;5534;48.784;9.190;2023-05-01T12:59:40;18.00;99.90
10964;DHT22;5534;48.784;9.190;2023-05-01T13:02:13;17.90;99.90
10964;DHT22;5534;48.784;9.190;2023-05-01T13:04:42;17.90;99.90
10964;DHT22;5534;48.784;9.190;2023-05-01T13:07:12;18.00;99.90
10964;DHT22;5534;48.784;9.190;2023-05-01T13:09:54;18.00;99.90
10964;DHT22;5534;48.784;9.190;2023-05-01T13:12:20;17.90;99.90
10964;DHT22;5534;48.784;9.190;2023-05-01T13:14:47;17.80;99.90
10964;DHT22;5534;48.784;9.190;2023-05-01T13:17:30;17.70;99.90
10964;DHT22;5534;48.784;9.190;2023-05-01T13:19:57;17.60;99.90
10964;DHT22;5534;48.784;9.190;2023-05-01T13:22:35;17.50;99.90
10964;DHT22;5534;48.784;9.190;2023-05-01T13:25:03;17.50;99.90
10964;DHT22;5534;48.784;9.190;2023-05-01T13:27:29;17.50;99.90
10964;DHT22;5534;48.784;9.190;2023-05-01T13:29:57;17.40;99.90
10964;DHT22;5534;48.784;9.190;2023-05-01T13:32:25;17.30;99.90
10964;DHT22;5534;48.784;9.190;2023-05-01T13:34:51;17.20;99.90
10964;DHT22;5534;48.784;9.190;2023-05-01T13:37:20;17.00;99.90
10964;DHT22;5534;48.784;9.190;2023-05-01T13:39:47;17.20;99.90
10964;DHT22;5534;48.784;9.190;2023-05-01T13:42:23;17.10;99.90
10964;DHT22;5534;48.784;9.190;2023-05-01T13:44:53;17.00;99.90
10964;DHT22;5534;48.784;9.190;2023-05-01T13:47:21;17.00;99.90
10964;DHT22;5534;48.784;9.190;2023-05-01T13:49:47;16.80;99.90
10964;DHT22;5534;48.784;9.190;2023-05-01T13:52:16;16.80;99.90
10964;DHT22;5534;48.784;9.190;2023-05-01T13:54:42;16.80;99.90
10964;DHT22;5534;48.784;9.190;2023-05-01T13:57:09;16.90;99.90
10964;DHT22;5534;48.784;9.190;2023-05-01T13:59:44;17.00;99.90
10964;DHT22;5534;48.784;9.190;2023-05-01T14:02:26;17.00;99.90
10964;DHT22;5534;48.784;9.190;2023-05-01T14:04:52;17.20;99.90
10964;DHT22;5534;48.784;9.190;2023-05-01T14:07:20;17.20;99.90
10964;DHT22;5534;48.784;9.190;2023-05-01T14:09:53;17.20;99.90
10964;DHT22;5534;48.784;9.190;2023-05-01T14:12:25;17.10;99.90
10964;DHT22;5534;48.784;9.190;2023-05-01T14:14:52;17.00;99.90
10964;DHT22;5534;48.784;9.190;2023-05-01T14:17:18;17.00;99.90
10964;DHT22;5534;48.784;9.190;2023-05-01T14:19:44;17.00;99.90
10964;DHT22;5534;48.784;9.190;2023-05-01T14:22:09;16.90;99.90
10964;DHT22;5534;48.784;9.190;2023-05-01T14:24:36;17.10;99.90
10964;DHT22;5534;48.784;9.190;2023-05-01T14:27:07;17.20;99.90
10964;DHT22;5534;48.784;9.190;2023-05-01T14:29:35;17.20;99.90
10964;DHT22;5534;48.784;9.190;2023-05-01T14:32:02;17.40;99.90
10964;DHT22;5534;48.784;9.190;2023-05-01T14:34:28;17.50;99.90
10964;DHT22;5534;48.784;9.190;2023-05-01T14:36:54;17.50;99.90
10964;DHT22;5534;48.784;9.190;2023-05-01T14:39:21;17.60;99.90
10964;DHT22;5534;48.784;9.190;2023-05-01T14:41:47;17.60;99.90
10964;DHT22;5534;48.784;9.190;2023-05-01T14:44:15;17.50;99.90
10964;DHT22;5534;48.784;9.190;2023-05-01T14:46:47;17.50;99.90
10964;DHT22;5534;48.784;9.190;2023-05-01T14:49:22;17.60;99.90
10964;DHT22;5534;48.784;9.190;2023-05-01T14:51:52;17.70;99.90
10964;DHT22;5534;48.784;9.190;2023-05-01T14:54:19;17.70;99.90
10964;DHT22;5534;48.784;9.190;2023-05-01T14:56:46;17.70;99.90
10964;DHT22;5534;48.784;9.190;2023-05-01T14:59:12;17.60;99.90
10964;DHT22;5534;48.784;9.190;2023-05-01T15:01:39;17.60;99.90
10964;DHT22;5534;48.784;9.190;2023-05-01T15:04:05;17.60;99.90
10964;DHT22;5534;48.784;9.190;2023-05-01T15:06:35;17.40;99.90
10964;DHT22;5534;48.784;9.190;2023-05-01T15:09:01;17.30;99.90
10964;DHT22;5534;48.784;9.190;2023-05-01T15:11:27;17.30;99.90
10964;DHT22;5534;48.784;9.190;2023-05-01T15:13:54;17.30;99.90
10964;DHT22;5534;48.784;9.190;2023-05-01T15:16:20;17.40;99.90
10964;DHT22;5534;48.784;9.190;2023-05-01T15:18:47;17.40;99.90
10964;DHT22;5534;48.784;9.190;2023-05-01T15:21:13;17.30;99.90
10964;DHT22;5534;48.784;9.190;2023-05-01T15:23:39;17.20;99.90
10964;DHT22;5534;48.784;9.190;2023-05-01T15:26:09;17.10;99.90
10964;DHT22;5534;48.784;9.190;2023-05-01T15:28:35;17.10;99.90
10964;DHT22;5534;48.784;9.190;2023-05-01T15:31:01;17.00;99.90
10964;DHT22;5534;48.784;9.190;2023-05-01T15:33:27;17.10;99.90
10964;DHT22;5534;48.784;9.190;2023-05-01T15:35:52;16.80;99.90
10964;DHT22;5534;48.784;9.190;2023-05-01T15:38:18;16.90;99.90
10964;DHT22;5534;48.784;9.190;2023-05-01T15:40:50;16.80;99.90
10964;DHT22;5534;48.784;9.190;2023-05-01T15:43:16;16.70;99.90
10964;DHT22;5534;48.784;9.190;2023-05-01T15:45:42;16.60;99.90
10964;DHT22;5534;48.784;9.190;2023-05-01T15:48:09;16.70;99.90
10964;DHT22;5534;48.784;9.190;2023-05-01T15:50:35;16.70;99.90
10964;DHT22;5534;48.784;9.190;2023-05-01T15:53:01;16.60;99.90
10964;DHT22;5534;48.784;9.190;2023-05-01T15:55:27;16.60;99.90
10964;DHT22;5534;48.784;9.190;2023-05-01T15:57:52;16.60;99.90
10964;DHT22;5534;48.784;9.190;2023-05-01T16:00:18;16.60;99.90
10964;DHT22;5534;48.784;9.190;2023-05-01T16:02:50;16.60;99.90
10964;DHT22;5534;48.784;9.190;2023-05-01T16:05:18;16.60;99.90
10964;DHT22;5534;48.784;9.190;2023-05-01T16:07:48;16.60;99.90
10964;DHT22;5534;48.784;9.190;2023-05-01T16:10:17;16.60;99.90
10964;DHT22;5534;48.784;9.190;2023-05-01T16:12:45;16.50;99.90
10964;DHT22;5534;48.784;9.190;2023-05-01T16:15:11;16.60;99.90
10964;DHT22;5534;48.784;9.190;2023-05-01T16:17:42;16.60;99.90
10964;DHT22;5534;48.784;9.190;2023-05-01T16:20:10;16.60;99.90
10964;DHT22;5534;48.784;9.190;2023-05-01T16:22:41;16.60;99.90
10964;DHT22;5534;48.784;9.190;2023-05-01T16:25:11;16.60;99.90